Weather at Palmerston Airport

Public forecast

Using degrees Celsius for public forecast. Weather courtesy of forecast.io.

Closest aviation weather report (METAR) to Palmerston Airport

Closest report is Waterloo Airport, 29.3 nm (54.3 km) SE. Retrieved 2021/04/20 17:00 UTC (17 minutes ago):

CYKF 201700Z AUTO 28014G20KT 9SM OVC031 02/M04 A2996 RMK SLP157

Closest aviation forecast (TAF) to Palmerston Airport

Closest forecast is Waterloo Airport, 29.3 nm (54.3 km) SE. Retrieved 2021/04/20 14:42 UTC (3 hours ago):

TAF CYKF 201339Z 2014/2102 27012G22KT P6SM BKN030 BKN120 TEMPO 2014/2015 OVC020 FM201800 27012G22KT P6SM SCT030 OVC100 FM210000 30008KT P6SM OVC080 RMK FCST BASED ON AUTO OBS NXT FCST BY 202000Z